Marietta, General Lucius D. Clay National Guard Center (KMGE)

NameGeneral Lucius D. Clay National Guard Center
CityMarietta
CountryUnited States
ICAOKMGE
IATAMGE
Altitude326 m
CoordinatesGoogle Map
Live Air TrafficLiveATC.net
METARKMGE 140056Z 10008KT 10SM SCT250 02/M07 A3028 RMK AO2A SLP266 T00191069 $
2019-11-14 00:56:00 Wind: East (100°) 4.12 m/s - Visibility: 16093.4 m - Temperature: 2 °C - Dew point: -7 °C - Humidity: 51.7% - Pressure: 1025.4 hPa

Sorry, no flights used the airport in this database.